Time;durP1;ratioP1;P1;durP2;ratioP2;P2;SDS_P1;SDS_P2;PMS_P1;PMS_P2;Temp;Humidity;BMP_temperature;BMP_pressure;BME280_temperature;BME280_humidity;BME280_pressure;Samples;Min_cycle;Max_cycle;Signal;HPM_P1;HPM_P2
2023/03/24 00:00:41;;;;;;;2.73;1.33;;;12.10;99.30;;;;;;5096886;28;20422;-69
2023/03/24 00:03:07;;;;;;;2.17;1.40;;;12.10;99.40;;;;;;5104278;28;20516;-68
2023/03/24 00:05:33;;;;;;;4.10;1.57;;;12.10;99.50;;;;;;5106259;28;20493;-69
2023/03/24 00:07:58;;;;;;;2.83;1.50;;;12.20;99.10;;;;;;5092822;28;20526;-69
2023/03/24 00:10:24;;;;;;;9.23;1.43;;;12.20;98.70;;;;;;5084961;28;20212;-69
2023/03/24 00:12:50;;;;;;;3.17;1.07;;;12.20;98.70;;;;;;5094064;28;20259;-68
2023/03/24 00:15:20;;;;;;;6.30;1.90;;;12.20;98.70;;;;;;5093856;28;20905;-68
2023/03/24 00:17:49;;;;;;;3.90;1.50;;;12.20;98.80;;;;;;5088586;28;20437;-69
2023/03/24 00:20:15;;;;;;;2.60;1.53;;;12.20;98.90;;;;;;5095856;28;20906;-68
2023/03/24 00:22:49;;;;;;;1.90;1.20;;;12.20;98.70;;;;;;5092680;28;20528;-69
2023/03/24 00:25:18;;;;;;;3.73;1.57;;;12.20;98.70;;;;;;5089753;28;20434;-68
2023/03/24 00:27:47;;;;;;;2.17;0.93;;;12.10;98.70;;;;;;5090979;28;20521;-69
2023/03/24 00:30:14;;;;;;;3.33;1.43;;;12.20;98.60;;;;;;5092015;28;20926;-68
2023/03/24 00:32:40;;;;;;;4.70;1.60;;;12.20;98.30;;;;;;5098128;28;20413;-68
2023/03/24 00:35:07;;;;;;;8.07;2.10;;;12.20;98.50;;;;;;5098206;28;20906;-68
2023/03/24 00:37:36;;;;;;;3.20;1.30;;;12.30;98.10;;;;;;5090185;28;20180;-68
2023/03/24 00:40:06;;;;;;;2.63;1.27;;;12.30;97.90;;;;;;5089827;28;20926;-68
2023/03/24 00:42:35;;;;;;;2.77;1.10;;;12.40;97.90;;;;;;5090437;28;20433;-69
2023/03/24 00:45:05;;;;;;;4.80;1.20;;;12.30;97.80;;;;;;5096208;28;20433;-68
2023/03/24 00:47:35;;;;;;;3.13;1.07;;;12.40;97.80;;;;;;5087069;28;20442;-69
2023/03/24 00:50:03;;;;;;;1.70;1.20;;;12.40;97.90;;;;;;5093085;28;20457;-68
2023/03/24 00:52:32;;;;;;;2.90;1.30;;;12.30;97.70;;;;;;5088173;28;20426;-69
2023/03/24 00:55:00;;;;;;;3.83;1.10;;;12.40;97.50;;;;;;5091914;28;20434;-69
2023/03/24 00:57:28;;;;;;;2.60;1.30;;;12.40;97.30;;;;;;5093914;28;20414;-69
2023/03/24 00:59:56;;;;;;;3.93;1.37;;;12.40;97.20;;;;;;5111689;28;20905;-68
2023/03/24 01:02:24;;;;;;;2.70;1.43;;;12.40;97.10;;;;;;5099852;28;20423;-68
2023/03/24 01:04:55;;;;;;;2.70;1.10;;;12.50;96.90;;;;;;5110517;28;20416;-68
2023/03/24 01:07:22;;;;;;;1.93;0.70;;;12.50;96.80;;;;;;5091581;28;20450;-68
2023/03/24 01:09:56;;;;;;;2.33;1.10;;;12.50;96.80;;;;;;5092010;28;20457;-68
2023/03/24 01:12:33;;;;;;;4.70;1.30;;;12.40;96.90;;;;;;5107490;28;20421;-69
2023/03/24 01:15:01;;;;;;;4.73;1.73;;;12.40;97.10;;;;;;5111726;28;20414;-69
2023/03/24 01:17:28;;;;;;;3.20;1.73;;;12.30;97.20;;;;;;5104664;28;20426;-69
2023/03/24 01:19:55;;;;;;;2.23;1.03;;;12.30;97.40;;;;;;5107759;28;20435;-69
2023/03/24 01:22:21;;;;;;;2.23;1.07;;;12.30;97.40;;;;;;5096116;28;20517;-68
2023/03/24 01:24:48;;;;;;;1.80;1.10;;;12.30;97.30;;;;;;5103350;28;20549;-68
2023/03/24 01:27:15;;;;;;;3.60;1.50;;;12.20;97.50;;;;;;5093638;28;20439;-69
2023/03/24 01:29:41;;;;;;;2.27;1.23;;;12.20;97.50;;;;;;5099890;28;21003;-69
2023/03/24 01:32:07;;;;;;;1.90;1.10;;;12.20;97.60;;;;;;5095037;28;20922;-69
2023/03/24 01:34:33;;;;;;;2.10;1.17;;;12.20;97.50;;;;;;5103889;28;20881;-68
2023/03/24 01:36:59;;;;;;;3.87;1.77;;;12.20;97.60;;;;;;5096769;28;20429;-68
2023/03/24 01:39:25;;;;;;;2.50;1.33;;;12.20;97.60;;;;;;5091974;28;20438;-69
2023/03/24 01:41:51;;;;;;;4.27;1.30;;;12.10;97.60;;;;;;5105604;28;20444;-68
2023/03/24 01:44:30;;;;;;;5.90;1.90;;;12.20;97.50;;;;;;5094382;28;20219;-69
2023/03/24 01:46:57;;;;;;;2.67;1.07;;;12.20;97.60;;;;;;5093306;28;20188;-69
2023/03/24 01:49:28;;;;;;;2.53;0.90;;;12.20;97.50;;;;;;5098906;28;20532;-69
2023/03/24 01:51:58;;;;;;;1.57;0.93;;;12.20;97.60;;;;;;5097643;28;20442;-69
2023/03/24 01:54:35;;;;;;;2.03;1.10;;;12.20;97.50;;;;;;5096828;28;20418;-69
2023/03/24 01:57:10;;;;;;;8.07;1.70;;;12.20;97.50;;;;;;5094461;28;20429;-69
2023/03/24 01:59:39;;;;;;;2.17;0.90;;;12.20;97.30;;;;;;5098430;28;20818;-69
2023/03/24 02:02:05;;;;;;;2.07;0.90;;;12.30;97.40;;;;;;5092907;28;20487;-69
2023/03/24 02:04:37;;;;;;;3.40;1.20;;;12.30;97.20;;;;;;5092813;28;20433;-68
2023/03/24 02:07:14;;;;;;;4.00;1.23;;;12.40;97.30;;;;;;5092668;28;20177;-69
2023/03/24 02:09:39;;;;;;;2.97;1.40;;;12.40;97.30;;;;;;5089082;28;20461;-68
2023/03/24 02:12:05;;;;;;;1.87;0.80;;;12.50;96.90;;;;;;5088465;28;20443;-68
2023/03/24 02:14:31;;;;;;;2.03;1.20;;;12.60;96.80;;;;;;5095413;28;20260;-68
2023/03/24 02:17:11;;;;;;;2.40;1.30;;;12.60;96.80;;;;;;5095089;28;20496;-68
2023/03/24 02:19:43;;;;;;;3.57;1.27;;;12.50;96.80;;;;;;5090767;28;20468;-69
2023/03/24 02:22:25;;;;;;;1.60;1.00;;;12.50;96.80;;;;;;5092001;28;20969;-68
2023/03/24 02:24:54;;;;;;;1.90;0.90;;;12.60;96.60;;;;;;5095304;28;20458;-71
2023/03/24 02:27:46;;;;;;;2.20;0.90;;;12.60;96.60;;;;;;5092492;28;20426;-68
2023/03/24 02:30:33;;;;;;;2.50;1.30;;;12.60;96.70;;;;;;5098160;28;21157;-69
2023/03/24 02:33:26;;;;;;;2.70;1.27;;;12.60;96.60;;;;;;5093162;28;20513;-68
2023/03/24 02:36:14;;;;;;;3.17;1.10;;;12.50;96.70;;;;;;5094494;28;20505;-69
2023/03/24 02:39:26;;;;;;;3.60;1.10;;;12.50;96.80;;;;;;5088320;28;20517;-68
2023/03/24 02:41:55;;;;;;;9.03;1.10;;;12.40;96.80;;;;;;5100022;28;20405;-68
2023/03/24 02:44:36;;;;;;;5.77;1.03;;;12.50;96.70;;;;;;5074648;28;20799;-69
2023/03/24 02:47:15;;;;;;;3.43;1.50;;;12.50;96.70;;;;;;5105660;28;20921;-68
2023/03/24 02:49:52;;;;;;;8.50;1.30;;;12.60;96.50;;;;;;5092115;28;20472;-69
2023/03/24 02:52:21;;;;;;;2.77;1.37;;;12.60;96.30;;;;;;5094856;28;20982;-69
2023/03/24 02:54:51;;;;;;;1.87;0.70;;;12.70;96.20;;;;;;5113795;28;20410;-69
2023/03/24 02:57:39;;;;;;;1.87;1.20;;;12.70;96.00;;;;;;5114152;28;20414;-69
2023/03/24 03:00:12;;;;;;;9.33;1.20;;;12.70;96.00;;;;;;5114028;28;20415;-68
2023/03/24 03:02:46;;;;;;;2.70;0.97;;;12.60;96.00;;;;;;5113096;28;20424;-68
2023/03/24 03:05:27;;;;;;;2.13;1.00;;;12.60;96.30;;;;;;5100851;28;20458;-69
2023/03/24 03:07:57;;;;;;;2.60;1.10;;;12.50;96.50;;;;;;5090041;28;20415;-69
2023/03/24 03:10:26;;;;;;;4.27;1.13;;;12.50;96.70;;;;;;5093366;28;20466;-68
2023/03/24 03:12:57;;;;;;;2.17;0.93;;;12.50;96.70;;;;;;5088208;28;20941;-68
2023/03/24 03:15:41;;;;;;;2.73;1.50;;;12.50;96.70;;;;;;5096934;28;20418;-68
2023/03/24 03:18:38;;;;;;;2.97;1.50;;;12.50;96.60;;;;;;5092603;28;20499;-68
2023/03/24 03:21:09;;;;;;;2.60;0.90;;;12.60;96.70;;;;;;5063149;28;20859;-69
2023/03/24 03:23:56;;;;;;;6.33;1.63;;;12.60;96.60;;;;;;5092517;28;20464;-68
2023/03/24 03:26:27;;;;;;;1.40;0.80;;;12.60;96.50;;;;;;5090517;28;20861;-68
2023/03/24 03:28:58;;;;;;;3.53;1.40;;;12.60;96.60;;;;;;5091619;28;20929;-69
2023/03/24 03:31:42;;;;;;;3.90;1.40;;;12.60;96.50;;;;;;5095300;28;20438;-68
2023/03/24 03:34:33;;;;;;;2.60;1.07;;;12.60;96.30;;;;;;5090500;28;20441;-69
2023/03/24 03:37:10;;;;;;;2.93;1.00;;;12.60;96.30;;;;;;5088126;28;20495;-68
2023/03/24 03:39:45;;;;;;;1.77;1.00;;;12.60;96.50;;;;;;5092577;28;20442;-69
2023/03/24 03:42:11;;;;;;;2.80;1.27;;;12.70;96.00;;;;;;5098790;28;20916;-69
2023/03/24 03:44:36;;;;;;;2.53;1.00;;;12.70;95.90;;;;;;5093891;28;20434;-68
2023/03/24 03:47:02;;;;;;;2.23;0.97;;;12.70;95.80;;;;;;5095155;28;20645;-69
2023/03/24 03:49:28;;;;;;;2.80;1.10;;;12.80;95.80;;;;;;5090242;28;20299;-69
2023/03/24 03:51:56;;;;;;;1.50;0.90;;;12.80;95.80;;;;;;5088341;28;20533;-69
2023/03/24 03:54:23;;;;;;;2.23;1.10;;;12.80;96.00;;;;;;5090617;28;20295;-69
2023/03/24 03:56:49;;;;;;;2.80;1.93;;;12.70;95.90;;;;;;5091211;28;20945;-69
2023/03/24 03:59:41;;;;;;;1.90;0.83;;;12.70;96.20;;;;;;5089136;28;20445;-69
2023/03/24 04:02:28;;;;;;;1.73;0.77;;;12.80;95.80;;;;;;5086301;28;20521;-69
2023/03/24 04:04:55;;;;;;;1.90;0.90;;;12.80;95.80;;;;;;5097480;28;20417;-69
2023/03/24 04:08:12;;;;;;;3.87;1.47;;;12.80;95.90;;;;;;5092435;28;20484;-69
2023/03/24 04:10:53;;;;;;;2.90;1.30;;;12.80;96.10;;;;;;5041993;28;20479;-69
2023/03/24 04:13:32;;;;;;;2.40;1.37;;;12.80;96.50;;;;;;5083926;28;20434;-69
2023/03/24 04:16:02;;;;;;;1.83;0.93;;;12.70;96.80;;;;;;5083070;28;20996;-69
2023/03/24 04:18:37;;;;;;;2.03;1.00;;;12.70;96.70;;;;;;5092619;28;20434;-69
2023/03/24 04:21:15;;;;;;;10.00;1.50;;;12.60;96.80;;;;;;5093125;28;20476;-69
2023/03/24 04:24:07;;;;;;;2.17;1.20;;;12.60;97.00;;;;;;5090298;28;20438;-69
2023/03/24 04:26:59;;;;;;;2.40;1.33;;;12.60;97.20;;;;;;5084717;28;20532;-69
2023/03/24 04:29:52;;;;;;;1.90;1.00;;;12.50;97.20;;;;;;5084945;28;20469;-69
2023/03/24 04:32:20;;;;;;;7.33;1.33;;;12.50;97.30;;;;;;5092830;28;20461;-69
2023/03/24 04:34:53;;;;;;;2.37;1.40;;;12.40;97.40;;;;;;5098290;28;20440;-69
2023/03/24 04:37:27;;;;;;;2.20;0.90;;;12.50;97.40;;;;;;5096851;28;20948;-69
2023/03/24 04:39:57;;;;;;;2.67;1.50;;;12.50;97.40;;;;;;5091482;28;20441;-69
2023/03/24 04:42:52;;;;;;;2.00;1.37;;;12.50;97.40;;;;;;5086172;28;20906;-69
2023/03/24 04:45:19;;;;;;;1.67;1.00;;;12.50;97.40;;;;;;5088581;28;20467;-69
2023/03/24 04:47:53;;;;;;;3.20;1.70;;;12.50;97.50;;;;;;5092697;28;20430;-69
2023/03/24 04:50:30;;;;;;;3.93;1.00;;;12.50;97.60;;;;;;5091825;28;20462;-69
2023/03/24 04:52:56;;;;;;;2.00;1.23;;;12.50;97.60;;;;;;5092242;28;20580;-69
2023/03/24 04:56:03;;;;;;;3.40;1.60;;;12.50;97.70;;;;;;5092604;28;20482;-69
2023/03/24 04:58:29;;;;;;;3.17;1.67;;;12.50;97.80;;;;;;5070995;28;20446;-69
2023/03/24 05:00:55;;;;;;;2.90;1.63;;;12.50;97.90;;;;;;5091577;28;20954;-69
2023/03/24 05:03:21;;;;;;;3.40;1.50;;;12.50;98.00;;;;;;5099820;28;20205;-69
2023/03/24 05:05:48;;;;;;;4.17;1.73;;;12.40;98.30;;;;;;5093777;28;20855;-69
2023/03/24 05:08:16;;;;;;;3.27;1.70;;;12.40;98.60;;;;;;5086355;28;20188;-69
2023/03/24 05:10:42;;;;;;;1.90;1.10;;;12.30;98.70;;;;;;5092881;28;20457;-69
2023/03/24 05:13:08;;;;;;;3.73;1.87;;;12.30;98.80;;;;;;5087942;28;20427;-69
2023/03/24 05:15:34;;;;;;;2.67;1.50;;;12.20;99.00;;;;;;5098262;28;20611;-69
2023/03/24 05:18:01;;;;;;;3.63;1.50;;;12.20;99.60;;;;;;5087631;28;20525;-69
2023/03/24 05:20:26;;;;;;;15.30;1.60;;;12.00;99.90;;;;;;5089389;28;20439;-68
2023/03/24 05:22:52;;;;;;;1.87;1.10;;;12.00;99.90;;;;;;5086877;28;20980;-69
2023/03/24 05:25:18;;;;;;;2.00;1.23;;;12.00;99.90;;;;;;5090874;28;20310;-68
2023/03/24 05:27:44;;;;;;;5.57;1.40;;;11.90;99.90;;;;;;5088809;28;20200;-69
2023/03/24 05:30:11;;;;;;;5.90;1.20;;;11.80;99.90;;;;;;5098247;28;20468;-68
2023/03/24 05:32:36;;;;;;;3.00;1.50;;;11.70;99.90;;;;;;5094316;28;20784;-68
2023/03/24 05:35:03;;;;;;;4.73;2.23;;;11.60;99.90;;;;;;5081620;28;20455;-68
2023/03/24 05:37:29;;;;;;;5.03;1.83;;;11.50;99.90;;;;;;5088340;28;20268;-68
2023/03/24 05:39:55;;;;;;;2.03;1.20;;;11.40;99.90;;;;;;5094239;28;20998;-68
2023/03/24 05:42:20;;;;;;;2.50;1.20;;;11.40;99.90;;;;;;5089557;28;20191;-68
2023/03/24 05:44:46;;;;;;;2.87;1.60;;;11.30;99.90;;;;;;5093850;28;20187;-68
2023/03/24 05:47:15;;;;;;;4.90;1.63;;;11.30;99.90;;;;;;5088963;28;20652;-69
2023/03/24 05:49:42;;;;;;;6.43;3.07;;;11.30;99.90;;;;;;5096387;28;20200;-69
2023/03/24 05:52:08;;;;;;;4.60;1.80;;;11.20;99.90;;;;;;5085514;28;20445;-68
2023/03/24 05:54:35;;;;;;;3.23;1.33;;;11.20;99.90;;;;;;5086986;28;20449;-69
2023/03/24 05:57:00;;;;;;;4.60;1.60;;;11.20;99.90;;;;;;5085632;28;20460;-69
2023/03/24 05:59:27;;;;;;;14.63;5.67;;;11.10;99.90;;;;;;5087587;28;20775;-69
2023/03/24 06:01:55;;;;;;;13.83;3.77;;;11.10;99.90;;;;;;5089292;28;20242;-68
2023/03/24 06:04:21;;;;;;;5.30;2.23;;;11.10;99.90;;;;;;5100033;28;20802;-68
2023/03/24 06:06:47;;;;;;;6.00;3.10;;;11.10;99.90;;;;;;5088370;28;20442;-69
2023/03/24 06:09:15;;;;;;;7.03;2.00;;;11.00;99.90;;;;;;5086473;28;20848;-68
2023/03/24 06:11:44;;;;;;;3.23;2.10;;;11.10;99.90;;;;;;5088127;28;20716;-69
2023/03/24 06:14:10;;;;;;;4.23;2.40;;;11.10;99.90;;;;;;5094549;28;20459;-68
2023/03/24 06:16:38;;;;;;;2.87;1.57;;;11.10;99.90;;;;;;5092241;28;20434;-68
2023/03/24 06:19:05;;;;;;;3.30;1.93;;;11.20;99.90;;;;;;5097963;28;20436;-68
2023/03/24 06:21:32;;;;;;;2.13;1.40;;;11.10;99.90;;;;;;5097370;28;20461;-68
2023/03/24 06:23:58;;;;;;;2.00;1.00;;;11.10;99.90;;;;;;5096938;28;20483;-68
2023/03/24 06:26:24;;;;;;;4.83;2.03;;;11.10;99.90;;;;;;5099226;28;20464;-68
2023/03/24 06:28:53;;;;;;;4.30;2.07;;;11.10;99.90;;;;;;5094146;28;20545;-68
2023/03/24 06:31:20;;;;;;;4.80;1.90;;;11.10;99.90;;;;;;5100399;28;20433;-68
2023/03/24 06:33:49;;;;;;;6.53;3.13;;;11.10;99.90;;;;;;5088713;28;20453;-69
2023/03/24 06:36:15;;;;;;;3.00;1.20;;;11.10;99.90;;;;;;5095434;28;20441;-68
2023/03/24 06:38:41;;;;;;;5.67;2.27;;;11.10;99.90;;;;;;5090560;28;20941;-69
2023/03/24 06:41:08;;;;;;;3.40;1.63;;;11.20;99.90;;;;;;5094791;28;20750;-68
2023/03/24 06:43:34;;;;;;;4.70;1.77;;;11.30;99.90;;;;;;5096432;28;20430;-68
2023/03/24 06:46:00;;;;;;;3.83;1.87;;;11.40;99.90;;;;;;5095382;28;20549;-69
2023/03/24 06:48:26;;;;;;;4.63;2.20;;;11.50;99.90;;;;;;5090002;28;20894;-68
2023/03/24 06:50:52;;;;;;;4.70;1.97;;;11.50;99.90;;;;;;5091878;28;20599;-69
2023/03/24 06:53:20;;;;;;;2.60;1.90;;;11.50;99.90;;;;;;5090104;28;20521;-68
2023/03/24 06:55:47;;;;;;;3.40;2.13;;;11.40;99.90;;;;;;5092331;28;20184;-68
2023/03/24 06:58:13;;;;;;;2.67;1.40;;;11.40;99.90;;;;;;5090990;28;20513;-68
2023/03/24 07:00:40;;;;;;;2.93;1.70;;;11.40;99.90;;;;;;5094300;28;20895;-68
2023/03/24 07:03:06;;;;;;;4.53;1.80;;;11.30;99.90;;;;;;5083805;28;20494;-68
2023/03/24 07:05:37;;;;;;;3.47;1.87;;;11.20;99.90;;;;;;5087816;28;20435;-68
2023/03/24 07:08:03;;;;;;;3.93;2.00;;;11.30;99.90;;;;;;5089951;28;20445;-68
2023/03/24 07:10:28;;;;;;;3.30;1.90;;;11.20;99.90;;;;;;5090675;28;20467;-68
2023/03/24 07:12:54;;;;;;;3.30;2.13;;;11.20;99.90;;;;;;5076568;28;20225;-68
2023/03/24 07:15:20;;;;;;;2.50;1.50;;;11.10;99.90;;;;;;5093645;28;20299;-68
2023/03/24 07:17:45;;;;;;;7.43;2.93;;;11.10;99.90;;;;;;5094575;28;21049;-68
2023/03/24 07:20:11;;;;;;;4.27;2.40;;;11.10;99.90;;;;;;5095314;28;20497;-67
2023/03/24 07:22:37;;;;;;;6.03;1.97;;;11.10;99.90;;;;;;5094763;28;20192;-67
2023/03/24 07:25:04;;;;;;;3.07;2.00;;;11.10;99.90;;;;;;5093907;28;20275;-67
2023/03/24 07:27:33;;;;;;;4.30;1.73;;;11.10;99.90;;;;;;5088865;28;20200;-66
2023/03/24 07:29:59;;;;;;;7.90;3.27;;;11.00;99.90;;;;;;5090703;28;20496;-67
2023/03/24 07:32:27;;;;;;;12.83;2.33;;;11.00;99.90;;;;;;5099653;28;20417;-67
2023/03/24 07:34:53;;;;;;;4.33;2.50;;;11.00;99.90;;;;;;5099092;28;20430;-67
2023/03/24 07:37:18;;;;;;;4.27;2.13;;;11.00;99.90;;;;;;5088808;28;20438;-67
2023/03/24 07:39:44;;;;;;;6.17;2.70;;;11.00;99.90;;;;;;5086073;28;20309;-67
2023/03/24 07:42:10;;;;;;;6.43;2.80;;;11.00;99.90;;;;;;5088856;28;20278;-66
2023/03/24 07:44:35;;;;;;;4.23;2.00;;;11.00;99.90;;;;;;5094954;28;20188;-67
2023/03/24 07:47:01;;;;;;;20.17;2.60;;;11.00;99.90;;;;;;5095874;28;20267;-67
2023/03/24 07:49:27;;;;;;;4.37;2.40;;;11.00;99.90;;;;;;5099908;28;20307;-66
2023/03/24 07:51:52;;;;;;;1.87;1.43;;;11.00;99.90;;;;;;5077860;28;20185;-66
2023/03/24 07:54:18;;;;;;;5.43;2.40;;;11.00;99.90;;;;;;5083406;28;20568;-66
2023/03/24 07:56:43;;;;;;;6.70;2.37;;;11.00;99.90;;;;;;5089265;28;20177;-66
2023/03/24 07:59:09;;;;;;;14.03;3.20;;;11.00;99.90;;;;;;5086638;28;20184;-67
2023/03/24 08:01:36;;;;;;;4.80;2.33;;;11.00;99.90;;;;;;5093421;28;20267;-67
2023/03/24 08:04:03;;;;;;;4.77;2.43;;;11.00;99.90;;;;;;5090837;28;20204;-67
2023/03/24 08:06:29;;;;;;;7.07;2.77;;;11.00;99.90;;;;;;5093022;28;20434;-67
2023/03/24 08:08:54;;;;;;;6.97;3.80;;;11.00;99.90;;;;;;5092099;28;20511;-66
2023/03/24 08:11:20;;;;;;;3.83;2.00;;;11.00;99.90;;;;;;5084284;28;20229;-67
2023/03/24 08:13:46;;;;;;;3.70;2.20;;;11.00;99.90;;;;;;5100970;28;20179;-67
2023/03/24 08:16:12;;;;;;;3.87;1.60;;;11.10;99.90;;;;;;5091483;28;20168;-67
2023/03/24 08:18:38;;;;;;;6.00;2.43;;;11.00;99.90;;;;;;5095660;28;20761;-66
2023/03/24 08:21:04;;;;;;;4.43;2.73;;;11.10;99.90;;;;;;5081211;28;20176;-66
2023/03/24 08:23:30;;;;;;;4.63;2.47;;;11.10;99.90;;;;;;5102519;28;20229;-67
2023/03/24 08:25:55;;;;;;;4.87;2.47;;;11.10;99.90;;;;;;5087609;28;20511;-66
2023/03/24 08:28:21;;;;;;;7.30;2.37;;;11.10;99.90;;;;;;5097179;28;20169;-66
2023/03/24 08:30:47;;;;;;;4.33;2.37;;;11.20;99.90;;;;;;5090146;28;20223;-67
2023/03/24 08:33:14;;;;;;;3.80;2.27;;;11.20;99.90;;;;;;5086467;28;20176;-67
2023/03/24 08:35:40;;;;;;;4.37;2.87;;;11.20;99.90;;;;;;5090390;28;20279;-67
2023/03/24 08:38:10;;;;;;;3.60;2.00;;;11.20;99.90;;;;;;5089495;28;20438;-66
2023/03/24 08:40:37;;;;;;;3.00;1.83;;;11.20;99.90;;;;;;5088807;28;20195;-67
2023/03/24 08:43:07;;;;;;;2.30;1.47;;;11.20;99.90;;;;;;5087561;28;20422;-67
2023/03/24 08:45:33;;;;;;;3.63;1.90;;;11.20;99.90;;;;;;5085135;28;20769;-66
2023/03/24 08:48:01;;;;;;;6.53;2.63;;;11.20;99.90;;;;;;5098069;28;20433;-66
2023/03/24 08:50:31;;;;;;;5.93;2.10;;;11.30;99.90;;;;;;5083336;28;20485;-66
2023/03/24 08:52:57;;;;;;;4.37;1.87;;;11.40;99.90;;;;;;5081749;28;20783;-66
2023/03/24 08:55:23;;;;;;;5.50;2.30;;;11.40;99.90;;;;;;5093308;28;20580;-66
2023/03/24 08:57:49;;;;;;;10.20;2.53;;;11.40;99.90;;;;;;5099732;28;20446;-67
2023/03/24 09:00:17;;;;;;;5.00;2.60;;;11.50;99.90;;;;;;5102224;28;20438;-66
2023/03/24 09:02:45;;;;;;;3.00;2.10;;;11.40;99.90;;;;;;5096273;28;20457;-67
2023/03/24 09:05:12;;;;;;;2.77;1.77;;;11.50;99.90;;;;;;5088384;28;20446;-66
2023/03/24 09:07:38;;;;;;;4.13;2.27;;;11.50;99.90;;;;;;5089067;28;20820;-66
2023/03/24 09:10:06;;;;;;;5.47;2.40;;;11.50;99.90;;;;;;5098943;28;20479;-66
2023/03/24 09:12:33;;;;;;;4.00;2.33;;;11.60;99.90;;;;;;5090786;28;20226;-66
2023/03/24 09:14:58;;;;;;;3.50;1.80;;;11.60;99.90;;;;;;5094680;28;20940;-66
2023/03/24 09:17:24;;;;;;;6.47;1.93;;;11.70;99.90;;;;;;5093479;28;20434;-66
2023/03/24 09:19:50;;;;;;;6.63;1.83;;;11.70;99.90;;;;;;5085294;28;20590;-65
2023/03/24 09:22:15;;;;;;;3.03;1.83;;;11.70;99.90;;;;;;5090090;28;20596;-66
2023/03/24 09:24:43;;;;;;;2.70;1.60;;;11.80;99.90;;;;;;5098305;28;20179;-66
2023/03/24 09:27:09;;;;;;;4.50;2.30;;;11.90;99.90;;;;;;5098624;28;20667;-66
2023/03/24 09:29:34;;;;;;;3.37;1.97;;;12.00;99.90;;;;;;5096389;28;20493;-66
2023/03/24 09:32:00;;;;;;;5.03;2.00;;;12.10;99.90;;;;;;5082224;28;20223;-66
2023/03/24 09:34:26;;;;;;;4.67;1.97;;;12.20;99.90;;;;;;5087199;28;20176;-66
2023/03/24 09:36:51;;;;;;;4.27;1.90;;;12.30;99.90;;;;;;5085174;28;20182;-66
2023/03/24 09:39:17;;;;;;;7.13;2.27;;;12.40;99.90;;;;;;5084356;28;20189;-66
2023/03/24 09:41:47;;;;;;;3.27;1.97;;;12.60;99.90;;;;;;5079402;28;20790;-66
2023/03/24 09:44:33;;;;;;;4.83;1.80;;;12.80;99.90;;;;;;5083925;28;20181;-67
2023/03/24 09:47:21;;;;;;;2.53;1.93;;;12.80;99.90;;;;;;5078597;28;20446;-66
2023/03/24 09:49:48;;;;;;;5.07;2.43;;;12.80;99.90;;;;;;5089525;28;20779;-66
2023/03/24 09:52:28;;;;;;;3.83;1.50;;;12.90;99.90;;;;;;5089265;28;20416;-66
2023/03/24 09:54:57;;;;;;;2.90;1.67;;;13.00;99.90;;;;;;5082475;28;20414;-66
2023/03/24 09:57:28;;;;;;;4.70;2.13;;;13.00;99.90;;;;;;5083944;28;20418;-67
2023/03/24 09:59:53;;;;;;;3.20;1.63;;;13.10;99.90;;;;;;5085986;28;20415;-66
2023/03/24 10:02:20;;;;;;;2.23;1.43;;;13.30;99.90;;;;;;5081687;28;20454;-66
2023/03/24 10:04:47;;;;;;;3.50;1.40;;;13.40;99.90;;;;;;5087760;28;20199;-66
2023/03/24 10:07:38;;;;;;;1.30;0.70;;;13.50;99.90;;;;;;5091242;28;20501;-67
2023/03/24 10:10:23;;;;;;;1.37;0.80;;;13.70;99.90;;;;;;5098108;28;20493;-66
2023/03/24 10:12:49;;;;;;;2.10;1.27;;;13.70;99.90;;;;;;5095487;28;20462;-66
2023/03/24 10:15:40;;;;;;;1.80;1.10;;;13.80;99.90;;;;;;5093260;28;20902;-66
2023/03/24 10:18:11;;;;;;;3.03;1.03;;;14.00;99.90;;;;;;5087551;28;21238;-66
2023/03/24 10:21:02;;;;;;;1.60;0.80;;;14.00;99.90;;;;;;5096529;28;20883;-66
2023/03/24 10:24:01;;;;;;;1.77;0.97;;;13.90;99.90;;;;;;5090766;28;20544;-66
2023/03/24 10:26:35;;;;;;;1.50;0.73;;;13.80;99.90;;;;;;5093985;28;20447;-66
2023/03/24 10:29:24;;;;;;;1.30;0.60;;;14.00;99.90;;;;;;5094438;28;20457;-67
2023/03/24 10:31:56;;;;;;;1.40;0.80;;;14.10;99.90;;;;;;5082547;28;20407;-67
2023/03/24 10:34:26;;;;;;;1.77;0.70;;;14.10;99.90;;;;;;5094517;28;20506;-67
2023/03/24 10:36:53;;;;;;;1.30;0.60;;;14.10;99.90;;;;;;5098932;28;20891;-67
2023/03/24 10:39:19;;;;;;;1.53;0.67;;;14.00;99.90;;;;;;5088542;28;20902;-67
2023/03/24 10:41:44;;;;;;;1.63;0.70;;;14.00;99.90;;;;;;5098165;28;20448;-67
2023/03/24 10:44:11;;;;;;;2.60;0.80;;;14.00;99.90;;;;;;5094108;28;20184;-68
2023/03/24 10:46:45;;;;;;;1.20;0.60;;;14.10;99.90;;;;;;5089452;28;20185;-67
2023/03/24 10:49:11;;;;;;;1.30;0.63;;;14.00;99.90;;;;;;5092317;28;20507;-67
2023/03/24 10:51:38;;;;;;;1.40;0.70;;;14.00;99.90;;;;;;5096135;28;20431;-67
2023/03/24 10:54:16;;;;;;;1.67;0.77;;;13.90;99.90;;;;;;5089221;28;20172;-67
2023/03/24 10:56:45;;;;;;;5.10;1.10;;;13.90;99.90;;;;;;5085843;28;20432;-68
2023/03/24 10:59:31;;;;;;;2.43;1.40;;;14.00;99.90;;;;;;5091523;28;20955;-68
2023/03/24 11:02:10;;;;;;;1.80;0.87;;;14.10;99.90;;;;;;5087533;28;20439;-68
2023/03/24 11:04:50;;;;;;;1.50;0.80;;;14.10;99.90;;;;;;5088301;28;20479;-68
2023/03/24 11:07:22;;;;;;;3.03;1.30;;;14.20;99.90;;;;;;5089568;28;20430;-68
2023/03/24 11:10:02;;;;;;;1.70;0.90;;;14.40;99.90;;;;;;5088628;28;20461;-68
2023/03/24 11:12:31;;;;;;;4.70;0.93;;;14.50;99.90;;;;;;5090746;28;20464;-67
2023/03/24 11:15:16;;;;;;;1.40;0.70;;;14.50;99.90;;;;;;5094674;28;20505;-68
2023/03/24 11:17:43;;;;;;;1.30;0.60;;;14.60;99.90;;;;;;5092355;28;20422;-67
2023/03/24 11:20:30;;;;;;;1.50;0.77;;;14.60;99.90;;;;;;5101535;28;20441;-68
2023/03/24 11:23:01;;;;;;;2.37;0.70;;;14.80;99.90;;;;;;5094146;28;20464;-68
2023/03/24 11:25:29;;;;;;;1.30;0.57;;;14.60;99.90;;;;;;5086853;28;20446;-68
2023/03/24 11:27:59;;;;;;;1.30;0.50;;;14.50;99.90;;;;;;5091704;28;20485;-68
2023/03/24 11:30:45;;;;;;;3.07;1.03;;;14.40;99.90;;;;;;5087604;28;20489;-68
2023/03/24 11:33:33;;;;;;;1.73;0.80;;;14.40;99.90;;;;;;5098380;28;20438;-68
2023/03/24 11:36:26;;;;;;;2.17;0.90;;;14.50;99.90;;;;;;5083373;28;20431;-68
2023/03/24 11:39:00;;;;;;;1.30;0.70;;;14.50;99.90;;;;;;5084471;28;20498;-68
2023/03/24 11:41:27;;;;;;;1.50;0.70;;;14.40;99.90;;;;;;5094164;28;20425;-68
2023/03/24 11:44:21;;;;;;;1.57;0.70;;;14.30;99.90;;;;;;5094573;28;20922;-68
2023/03/24 11:46:57;;;;;;;1.20;0.50;;;14.30;99.90;;;;;;5085423;28;20418;-67
2023/03/24 11:49:29;;;;;;;2.17;0.70;;;14.20;99.90;;;;;;5095116;28;21013;-67
2023/03/24 11:51:55;;;;;;;1.40;0.60;;;14.20;99.90;;;;;;5082437;28;20435;-68
2023/03/24 11:54:26;;;;;;;1.57;0.50;;;14.10;99.90;;;;;;5088952;28;20488;-68
2023/03/24 11:56:58;;;;;;;1.50;0.53;;;14.10;99.90;;;;;;5093968;28;20575;-68
2023/03/24 11:59:49;;;;;;;1.40;0.60;;;14.10;99.90;;;;;;5084707;28;20945;-68
2023/03/24 12:02:52;;;;;;;1.60;0.70;;;14.10;99.90;;;;;;5082877;28;20438;-68
2023/03/24 12:05:25;;;;;;;1.27;0.57;;;14.10;99.90;;;;;;5089484;28;20468;-68
2023/03/24 12:08:13;;;;;;;1.30;0.60;;;14.00;99.90;;;;;;5082248;28;20462;-68
2023/03/24 12:10:47;;;;;;;4.80;0.80;;;14.00;99.90;;;;;;5095085;28;20484;-68
2023/03/24 12:13:17;;;;;;;7.90;0.60;;;14.00;99.90;;;;;;5088072;28;20442;-68
2023/03/24 12:16:10;;;;;;;1.40;0.50;;;14.00;99.90;;;;;;5082200;28;20515;-68
2023/03/24 12:18:42;;;;;;;1.40;0.50;;;14.10;99.90;;;;;;5086569;28;21212;-68
2023/03/24 12:21:25;;;;;;;1.20;0.40;;;14.20;99.90;;;;;;5090213;28;20470;-68
2023/03/24 12:24:09;;;;;;;1.30;0.50;;;14.30;99.90;;;;;;5082901;28;20498;-68
2023/03/24 12:26:35;;;;;;;1.30;0.50;;;14.30;99.90;;;;;;5093400;28;20433;-68
2023/03/24 12:29:28;;;;;;;1.30;0.60;;;14.20;99.90;;;;;;5086193;28;20927;-68
2023/03/24 12:32:09;;;;;;;1.30;0.57;;;14.20;99.90;;;;;;5084266;28;20533;-72
2023/03/24 12:34:56;;;;;;;1.40;0.60;;;14.20;99.90;;;;;;5092321;28;20991;-68
2023/03/24 12:37:43;;;;;;;1.50;0.60;;;14.20;99.90;;;;;;5099454;28;20426;-68
2023/03/24 12:40:43;;;;;;;1.20;0.50;;;14.10;99.90;;;;;;5093255;28;20448;-68
2023/03/24 12:43:33;;;;;;;1.40;0.70;;;14.00;99.90;;;;;;5087645;28;20433;-69
2023/03/24 12:46:21;;;;;;;2.07;0.80;;;14.00;99.90;;;;;;5093198;28;20429;-68
2023/03/24 12:49:22;;;;;;;1.37;0.50;;;14.00;99.90;;;;;;5096816;28;20421;-68
2023/03/24 12:52:25;;;;;;;1.40;0.60;;;14.10;99.90;;;;;;5038986;28;20431;-68
2023/03/24 12:55:13;;;;;;;1.23;0.47;;;14.10;99.90;;;;;;5090231;28;20764;-68
2023/03/24 12:57:50;;;;;;;1.53;0.70;;;14.10;99.90;;;;;;5109970;28;20418;-68
2023/03/24 13:00:16;;;;;;;1.30;0.60;;;14.10;99.90;;;;;;5094178;28;20433;-68
2023/03/24 13:02:47;;;;;;;1.40;0.57;;;14.20;99.90;;;;;;5101889;28;20422;-68
2023/03/24 13:05:32;;;;;;;1.20;0.40;;;14.30;99.90;;;;;;5098557;28;20177;-68
2023/03/24 13:08:03;;;;;;;1.50;0.60;;;14.30;99.90;;;;;;5094214;28;20434;-68
2023/03/24 13:10:39;;;;;;;1.23;0.50;;;14.30;99.90;;;;;;5092397;28;20496;-69